• Join FlightAware (Why Join?)
  • Login
  • US Flag 
08:00PM EST


 

Airport Tracker/Info


-or-


 

Live Flight TrackerFlight Track Log ✈ N121JM ✈ 20-Apr-2014 ✈ KMMU - KILG

Flight Track Log - Related Links

Times and Time Zones

All times are in EDT time to prevent confusion due to time zone crossing. See the N121JM flight status page for this flight to view local times or setup timezone preferences in your user account.

Time Position Orientation Groundspeed Altitude Reporting Facility
EDT Latitude Longitude Course Direction KTS MPH feet Rate Location/Type
09:25PM 40.7667 -74.4333 227° Southwest 178 205 1,900  Level New York TRACON
09:26PM 40.7167 -74.4000 153° Southeast 199 229 5,600 2,520 Climbing New York TRACON
09:27PM 40.6667 -74.3500 143° Southeast 272 313 6,700 1,020 Climbing New York TRACON
09:28PM 40.6167 -74.4167 225° Southwest 288 331 7,700 120 Climbing New York TRACON
09:31PM 40.5840 -74.7087 227° Southwest  Level FlightAware Approximate
09:33PM 40.5620 -74.9630 261° West 289 333 7,600  Level FlightAware ADS-B (KPHL)
09:35PM 40.5444 -75.1096 262° West 290 334 7,600 -180 Level FlightAware ADS-B (KPHL)
09:36PM 40.5327 -75.2236 262° West 285 328 7,200 -480 Descending FlightAware ADS-B (KPHL)
09:36PM 40.5311 -75.2390 262° West 284 327 7,000 -660 Descending FlightAware ADS-B (KPHL)
09:37PM 40.5266 -75.2837 262° West 278 320 6,700 -240 Descending FlightAware ADS-B (KPHL)
09:43PM 40.1071 -75.5020 198° South 283 326 5,700 -300 Descending FlightAware ADS-B (KPHL)
09:44PM 40.0501 -75.5269 199° South 266 306 4,800 -1,320 Descending FlightAware ADS-B (KPHL)
09:44PM 40.0213 -75.5396 199° South 261 300 4,100 -1,440 Descending FlightAware ADS-B (KPHL)
09:45PM 40.0080 -75.5454 199° South 259 298 3,700 -1,620 Descending FlightAware ADS-B (KPHL)
09:45PM 39.9849 -75.5556 199° South 258 297 3,100 -1,620 Descending FlightAware ADS-B
09:45PM 39.9526 -75.5701 199° South 256 295 2,500 -1,080 Descending FlightAware ADS-B (KPHL)
09:46PM 39.9248 -75.5818 194° South 241 277 2,200 -420 Descending FlightAware ADS-B (KPHL)
09:46PM 39.8995 -75.5840 177° South 219 252 2,200 -240 Level FlightAware ADS-B (KPHL)
09:46PM 39.8845 -75.5828 178° South 212 244 2,100 -420 Descending FlightAware ADS-B (KPHL)
09:47PM 39.8700 -75.5828 182° South 207 238 2,000 -420 Descending FlightAware ADS-B (KPHL)
09:47PM 39.8553 -75.5836 183° South 200 230 1,900 -600 Descending FlightAware ADS-B (KPHL)
09:47PM 39.8431 -75.5846 184° South 198 228 1,700 -540 Descending FlightAware ADS-B (KPHL)
09:48PM 39.8145 -75.5870 185° South 192 221 1,500 -300 Descending FlightAware ADS-B (KPHL)
09:48PM 39.8155 -75.5869 186° South 195 224 1,500  Level FlightAware ADS-B
09:48PM 39.7812 -75.5913 185° South 184 212 1,500 -300 Level FlightAware ADS-B
09:49PM 39.7653 -75.5928 184° South 171 197 1,300 -900 Descending FlightAware ADS-B
09:49PM 39.7446 -75.5953 185° South 162 186 800 -1,080 Descending FlightAware ADS-B
09:57PM 39.6787 -75.6066 180° South  Level Estimated
09:58PM 39.6787 -75.6066 157° South  Level Estimated